Terminal Aerodrome Forecast
Issued by NWS

Home | Current Version | Previous Version | Text Only | Print | Product List | Glossary On
Versions: 1 2 3 4 5 6 7 8 9 10 11 12 13 14 15 16
000
FTUS41 KBOX 022124 AAB
TAFHYA
TAF AMD
KHYA 022124Z 0221/0318 20007KT P6SM OVC004
     FM030100 24006KT 2SM BR OVC003
     FM030800 VRB03KT 2SM -RA BR OVC003
     FM031600 04007KT 2SM -SHRA BR OVC008
     FM031700 06007KT 3SM BR VCSH OVC008=

USA.gov is the U.S. government's official web portal to all federal, state and local government web resources and services.